Time;durP1;ratioP1;P1;durP2;ratioP2;P2;SDS_P1;SDS_P2;PMS_P1;PMS_P2;Temp;Humidity;BMP_temperature;BMP_pressure;BME280_temperature;BME280_humidity;BME280_pressure;Samples;Min_cycle;Max_cycle;Signal;HPM_P1;HPM_P2
2023/06/28 00:00:33;;;;;;;5.20;2.10;;;;;;;20.09;54.00;97506.28;4990633;28;20414;-70
2023/06/28 00:03:00;;;;;;;6.55;1.85;;;;;;;20.05;54.53;97505.31;4990413;28;20442;-71
2023/06/28 00:05:26;;;;;;;4.78;1.70;;;;;;;20.05;54.73;97507.22;5008330;28;20452;-71
2023/06/28 00:07:52;;;;;;;2.97;1.50;;;;;;;20.01;55.26;97504.34;5008836;28;20418;-71
2023/06/28 00:10:19;;;;;;;3.65;1.67;;;;;;;20.03;54.18;97502.16;4994423;28;20522;-70
2023/06/28 00:12:45;;;;;;;3.83;2.03;;;;;;;20.05;53.71;97496.47;5007811;28;20416;-71
2023/06/28 00:15:12;;;;;;;4.40;2.05;;;;;;;20.18;50.74;97500.94;4993992;28;20919;-71
2023/06/28 00:17:39;;;;;;;6.97;2.08;;;;;;;20.05;51.92;97504.53;4995580;28;20418;-71
2023/06/28 00:20:07;;;;;;;3.60;1.65;;;;;;;19.99;53.15;97505.78;5013832;28;20499;-71
2023/06/28 00:22:33;;;;;;;3.13;1.48;;;;;;;19.95;54.46;97505.59;5013182;28;20462;-70
2023/06/28 00:25:01;;;;;;;3.83;1.48;;;;;;;19.92;55.64;97505.41;5013644;28;20743;-70
2023/06/28 00:27:27;;;;;;;2.47;1.42;;;;;;;19.90;56.40;97500.34;4995096;28;20501;-71
2023/06/28 00:29:55;;;;;;;3.88;1.55;;;;;;;19.90;56.80;97503.03;5013259;28;20456;-70
2023/06/28 00:32:22;;;;;;;2.50;1.50;;;;;;;19.88;57.30;97501.75;5013123;28;20952;-71
2023/06/28 00:34:49;;;;;;;2.10;1.20;;;;;;;19.87;57.98;97508.22;4995437;28;20454;-71
2023/06/28 00:37:16;;;;;;;2.78;1.60;;;;;;;19.85;58.58;97516.56;4992491;28;20407;-70
2023/06/28 00:39:42;;;;;;;4.13;1.75;;;;;;;19.83;58.99;97516.13;5010282;28;20459;-70
2023/06/28 00:42:08;;;;;;;2.22;1.40;;;;;;;19.82;59.30;97519.09;5004820;28;20458;-70
2023/06/28 00:44:34;;;;;;;5.30;1.58;;;;;;;19.81;59.15;97514.81;4993646;28;20441;-69
2023/06/28 00:47:02;;;;;;;3.72;1.52;;;;;;;19.80;59.25;97513.25;5002468;28;20416;-69
2023/06/28 00:49:31;;;;;;;2.38;1.45;;;;;;;19.78;59.70;97518.13;4996791;28;20498;-69
2023/06/28 00:51:59;;;;;;;2.10;1.30;;;;;;;19.77;60.25;97520.03;4993158;28;20939;-70
2023/06/28 00:54:26;;;;;;;2.15;1.30;;;;;;;19.75;60.70;97514.16;5007266;28;20413;-70
2023/06/28 00:56:52;;;;;;;2.25;1.38;;;;;;;19.73;59.40;97521.72;5012949;28;20782;-70
2023/06/28 00:59:20;;;;;;;2.17;1.60;;;;;;;19.71;61.21;97530.09;4997654;28;20414;-70
2023/06/28 01:01:49;;;;;;;6.57;1.52;;;;;;;19.69;61.36;97528.81;4992271;28;21296;-70
2023/06/28 01:04:15;;;;;;;3.03;1.73;;;;;;;19.68;61.82;97536.09;4993410;28;20840;-69
2023/06/28 01:06:51;;;;;;;2.72;1.48;;;;;;;19.67;61.87;97534.50;4993111;28;20926;-69
2023/06/28 01:09:20;;;;;;;3.28;1.50;;;;;;;19.67;62.06;97537.19;4998112;28;20819;-70
2023/06/28 01:11:49;;;;;;;2.40;1.60;;;;;;;19.66;61.46;97545.53;4992859;28;20402;-70
2023/06/28 01:14:16;;;;;;;2.63;1.60;;;;;;;19.64;61.83;97543.16;5001829;28;20491;-70
2023/06/28 01:16:44;;;;;;;2.90;1.50;;;;;;;19.63;61.84;97543.44;5010645;28;20409;-70
2023/06/28 01:19:13;;;;;;;4.10;1.50;;;;;;;19.61;62.60;97543.00;4999868;28;20768;-70
2023/06/28 01:21:42;;;;;;;2.25;1.50;;;;;;;19.59;63.02;97543.28;4992755;28;20407;-70
2023/06/28 01:24:10;;;;;;;3.88;1.70;;;;;;;19.58;63.32;97546.28;4992784;28;20445;-70
2023/06/28 01:26:37;;;;;;;4.00;1.90;;;;;;;19.55;63.17;97544.97;4992747;28;20423;-70
2023/06/28 01:29:05;;;;;;;2.72;1.52;;;;;;;19.55;63.21;97541.50;4993885;28;20411;-69
2023/06/28 01:31:31;;;;;;;3.20;1.42;;;;;;;19.52;63.34;97550.97;4992453;28;20418;-70
2023/06/28 01:33:57;;;;;;;2.30;1.65;;;;;;;19.51;63.93;97538.66;4992760;28;20426;-70
2023/06/28 01:36:23;;;;;;;2.67;1.50;;;;;;;19.49;64.38;97535.47;4992541;28;20421;-70
2023/06/28 01:38:51;;;;;;;2.28;1.45;;;;;;;19.47;64.89;97531.50;4993419;28;20808;-70
2023/06/28 01:41:18;;;;;;;1.83;1.35;;;;;;;19.45;65.16;97536.34;4992265;28;20885;-70
2023/06/28 01:43:45;;;;;;;2.00;1.33;;;;;;;19.42;65.78;97540.44;4993566;28;20828;-69
2023/06/28 01:46:11;;;;;;;1.80;1.38;;;;;;;19.41;66.29;97530.78;4992375;28;20788;-69
2023/06/28 01:48:38;;;;;;;1.77;1.25;;;;;;;19.40;66.49;97539.13;4994048;28;20865;-69
2023/06/28 01:51:05;;;;;;;1.20;1.10;;;;;;;19.39;67.05;97532.22;5011556;28;20419;-69
2023/06/28 01:53:32;;;;;;;1.52;1.27;;;;;;;19.38;67.45;97539.47;5011394;28;20507;-69
2023/06/28 01:55:58;;;;;;;2.00;1.23;;;;;;;19.36;68.04;97533.59;5011565;28;20807;-70
2023/06/28 01:58:26;;;;;;;1.35;1.25;;;;;;;19.32;68.95;97530.72;5009098;28;20420;-69
2023/06/28 02:00:52;;;;;;;6.40;1.73;;;;;;;19.29;69.26;97533.22;4992096;28;20501;-69
2023/06/28 02:03:18;;;;;;;2.78;1.63;;;;;;;19.22;70.46;97541.69;4991961;28;20819;-69
2023/06/28 02:05:44;;;;;;;2.28;1.30;;;;;;;19.14;71.46;97537.06;4992057;28;20418;-69
2023/06/28 02:08:10;;;;;;;2.70;1.60;;;;;;;19.07;72.35;97535.88;4992111;28;20417;-69
2023/06/28 02:10:37;;;;;;;4.25;1.80;;;;;;;19.02;71.84;97536.00;5010743;28;20424;-69
2023/06/28 02:13:03;;;;;;;5.72;2.40;;;;;;;19.04;69.78;97534.56;5011355;28;20405;-69
2023/06/28 02:15:30;;;;;;;2.65;1.67;;;;;;;18.89;70.97;97540.28;4996674;28;20432;-69
2023/06/28 02:17:58;;;;;;;4.65;2.22;;;;;;;18.83;72.27;97534.22;4991826;28;20418;-69
2023/06/28 02:20:24;;;;;;;3.08;1.80;;;;;;;18.77;73.02;97527.38;5008859;28;20420;-69
2023/06/28 02:22:50;;;;;;;2.85;1.73;;;;;;;18.71;73.02;97522.44;5009711;28;20447;-69
2023/06/28 02:25:16;;;;;;;2.22;1.58;;;;;;;18.68;74.29;97528.38;5011130;28;20444;-69
2023/06/28 02:27:43;;;;;;;3.80;1.70;;;;;;;18.62;74.74;97522.34;5011174;28;20570;-69
2023/06/28 02:30:09;;;;;;;5.90;1.90;;;;;;;18.61;75.31;97526.09;4996158;28;20407;-69
2023/06/28 02:32:37;;;;;;;3.27;1.87;;;;;;;18.55;76.81;97527.28;4995590;28;20435;-69
2023/06/28 02:35:04;;;;;;;4.32;2.00;;;;;;;18.50;76.94;97528.16;5010854;28;20408;-69
2023/06/28 02:37:30;;;;;;;3.53;2.03;;;;;;;18.47;77.15;97525.28;5011022;28;20405;-69
2023/06/28 02:39:56;;;;;;;2.97;1.60;;;;;;;18.42;78.50;97526.16;4998434;28;20423;-69
2023/06/28 02:42:23;;;;;;;4.32;1.83;;;;;;;18.40;79.31;97535.63;4991312;28;20402;-69
2023/06/28 02:44:49;;;;;;;4.22;1.80;;;;;;;18.37;80.19;97533.50;4992522;28;20422;-69
2023/06/28 02:47:15;;;;;;;5.03;1.90;;;;;;;18.38;79.52;97541.25;4991466;28;20414;-69
2023/06/28 02:49:43;;;;;;;3.47;1.85;;;;;;;18.37;79.76;97538.88;5001550;28;20918;-70
2023/06/28 02:52:09;;;;;;;6.45;2.00;;;;;;;18.33;78.85;97538.69;5010302;28;20424;-69
2023/06/28 02:54:35;;;;;;;6.82;2.42;;;;;;;18.34;77.92;97532.25;5010875;28;20412;-69
2023/06/28 02:57:01;;;;;;;4.80;1.90;;;;;;;18.31;78.63;97529.34;5010829;28;20405;-69
2023/06/28 02:59:27;;;;;;;3.95;2.10;;;;;;;18.26;79.38;97535.63;5002339;28;20453;-69
2023/06/28 03:01:54;;;;;;;5.97;2.20;;;;;;;18.27;79.20;97533.72;4994868;28;20416;-69
2023/06/28 03:04:20;;;;;;;3.80;2.15;;;;;;;18.27;79.39;97531.03;5010545;28;20451;-69
2023/06/28 03:06:49;;;;;;;2.95;1.83;;;;;;;18.24;80.30;97537.00;5010733;28;20420;-69
2023/06/28 03:09:15;;;;;;;3.88;1.95;;;;;;;18.23;80.81;97540.75;5010472;28;20415;-69
2023/06/28 03:11:42;;;;;;;2.90;2.03;;;;;;;18.19;82.52;97540.56;5009005;28;20406;-69
2023/06/28 03:14:08;;;;;;;2.35;1.70;;;;;;;18.18;83.51;97544.34;4992606;28;20415;-69
2023/06/28 03:16:34;;;;;;;2.83;1.88;;;;;;;18.17;83.10;97546.22;4990982;28;20922;-69
2023/06/28 03:19:00;;;;;;;2.00;1.52;;;;;;;18.14;84.41;97544.13;4991128;28;20493;-69
2023/06/28 03:21:26;;;;;;;5.00;2.08;;;;;;;18.14;84.19;97538.75;4992038;28;20760;-69
2023/06/28 03:23:54;;;;;;;5.05;2.00;;;;;;;18.12;84.07;97543.59;4992429;28;20530;-69
2023/06/28 03:26:20;;;;;;;3.63;1.95;;;;;;;18.12;84.46;97537.44;4990926;28;20414;-69
2023/06/28 03:28:47;;;;;;;4.25;2.03;;;;;;;18.12;83.75;97538.25;4997638;28;20788;-69
2023/06/28 03:31:13;;;;;;;3.97;2.05;;;;;;;18.09;82.24;97538.84;5010489;28;20953;-69
2023/06/28 03:33:39;;;;;;;5.05;2.05;;;;;;;18.08;81.58;97539.94;4994197;28;20779;-69
2023/06/28 03:36:05;;;;;;;3.85;2.15;;;;;;;18.08;80.41;97537.25;4990847;28;20457;-69
2023/06/28 03:38:32;;;;;;;3.10;1.80;;;;;;;18.07;80.85;97530.31;4990905;28;20410;-69
2023/06/28 03:40:59;;;;;;;3.33;1.83;;;;;;;18.07;81.01;97530.31;4992019;28;20906;-69
2023/06/28 03:43:25;;;;;;;4.00;2.00;;;;;;;18.04;81.70;97522.84;5008068;28;20964;-69
2023/06/28 03:45:51;;;;;;;3.75;1.98;;;;;;;18.03;83.30;97521.28;5014113;28;20767;-69
2023/06/28 03:48:18;;;;;;;4.35;2.17;;;;;;;18.06;81.42;97528.72;5012847;28;20404;-69
2023/06/28 03:50:44;;;;;;;4.25;2.20;;;;;;;18.07;81.95;97524.97;4994661;28;20402;-69
2023/06/28 03:53:10;;;;;;;4.07;2.20;;;;;;;18.10;81.38;97524.38;4995335;28;20449;-69
2023/06/28 03:55:37;;;;;;;6.90;2.60;;;;;;;18.18;75.35;97526.38;4994501;28;20501;-69
2023/06/28 03:58:04;;;;;;;6.55;2.50;;;;;;;18.21;75.78;97524.16;4994472;28;20414;-69
2023/06/28 04:00:31;;;;;;;6.85;2.50;;;;;;;18.23;75.12;97527.34;4998169;28;20910;-69
2023/06/28 04:02:57;;;;;;;4.35;1.92;;;;;;;18.21;74.28;97522.28;5012596;28;20945;-69
2023/06/28 04:05:24;;;;;;;8.77;2.80;;;;;;;18.28;71.87;97517.31;5013829;28;20448;-69
2023/06/28 04:07:57;;;;;;;6.93;2.50;;;;;;;18.34;70.21;97523.41;5013398;28;20496;-70
2023/06/28 04:10:24;;;;;;;6.43;2.72;;;;;;;18.28;70.52;97513.84;5013517;28;20435;-70
2023/06/28 04:12:51;;;;;;;6.53;2.70;;;;;;;18.23;71.24;97517.44;5011868;28;20421;-70
2023/06/28 04:15:18;;;;;;;8.10;2.78;;;;;;;18.18;71.48;97521.00;4995173;28;20407;-70
2023/06/28 04:17:45;;;;;;;5.25;2.33;;;;;;;18.12;71.77;97522.19;4994089;28;20416;-70
2023/06/28 04:20:11;;;;;;;5.72;2.30;;;;;;;18.14;71.83;97525.34;4994051;28;20411;-70
2023/06/28 04:22:38;;;;;;;4.65;2.20;;;;;;;18.11;72.11;97520.63;4995127;28;20907;-70
2023/06/28 04:25:04;;;;;;;7.38;2.30;;;;;;;18.11;71.63;97528.66;5012857;28;20408;-70
2023/06/28 04:27:31;;;;;;;10.27;3.50;;;;;;;18.06;72.78;97533.28;5012619;28;20435;-70
2023/06/28 04:29:57;;;;;;;3.33;1.80;;;;;;;18.05;74.26;97534.38;5012828;28;20413;-70
2023/06/28 04:32:26;;;;;;;6.22;2.13;;;;;;;18.02;73.15;97530.41;5013162;28;20444;-71
2023/06/28 04:34:53;;;;;;;5.30;2.50;;;;;;;18.03;74.61;97531.22;5002307;28;20415;-70
2023/06/28 04:37:20;;;;;;;5.82;2.28;;;;;;;18.02;74.09;97538.44;4992798;28;20465;-71
2023/06/28 04:39:46;;;;;;;5.32;2.40;;;;;;;18.08;73.75;97537.25;4994013;28;20494;-71
2023/06/28 04:42:15;;;;;;;6.13;2.50;;;;;;;18.06;72.92;97535.97;4993796;28;20404;-71
2023/06/28 04:44:43;;;;;;;6.07;2.90;;;;;;;18.09;72.29;97538.84;5008598;28;20492;-71
2023/06/28 04:47:10;;;;;;;3.47;2.13;;;;;;;18.09;72.76;97538.06;5004694;28;20971;-71
2023/06/28 04:49:38;;;;;;;3.20;1.60;;;;;;;18.11;74.16;97539.38;5011431;28;20831;-71
2023/06/28 04:52:04;;;;;;;3.92;1.92;;;;;;;18.12;75.24;97545.50;5009436;28;20420;-71
2023/06/28 04:54:31;;;;;;;2.55;1.70;;;;;;;18.13;76.63;97539.03;5000457;28;20420;-71
2023/06/28 04:56:57;;;;;;;3.17;1.88;;;;;;;18.15;77.99;97547.59;5012999;28;20417;-71
2023/06/28 04:59:23;;;;;;;2.90;1.60;;;;;;;18.16;79.38;97543.81;5008451;28;20410;-71
2023/06/28 05:01:50;;;;;;;2.67;1.80;;;;;;;18.18;80.19;97545.13;4999944;28;20428;-71
2023/06/28 05:04:17;;;;;;;3.63;1.90;;;;;;;18.21;80.00;97541.03;5001736;28;20426;-71
2023/06/28 05:06:44;;;;;;;2.70;1.58;;;;;;;18.23;80.79;97546.91;5001316;28;20472;-71
2023/06/28 05:09:10;;;;;;;3.03;1.63;;;;;;;18.27;81.51;97547.13;5011069;28;20822;-71
2023/06/28 05:11:36;;;;;;;4.18;2.03;;;;;;;18.30;78.40;97543.84;5011072;28;20481;-71
2023/06/28 05:14:03;;;;;;;5.25;2.10;;;;;;;18.30;76.67;97544.63;5003074;28;20423;-70
2023/06/28 05:16:29;;;;;;;5.18;2.25;;;;;;;18.31;76.46;97543.53;4992897;28;20413;-70
2023/06/28 05:18:55;;;;;;;3.97;2.20;;;;;;;18.35;75.24;97541.06;4993018;28;20418;-71
2023/06/28 05:21:21;;;;;;;7.20;2.17;;;;;;;18.39;73.33;97532.13;4992671;28;20708;-70
2023/06/28 05:23:49;;;;;;;3.35;2.08;;;;;;;18.41;71.76;97537.22;5005830;28;20428;-71
2023/06/28 05:26:15;;;;;;;6.25;2.35;;;;;;;18.41;71.57;97545.25;5012122;28;20428;-70
2023/06/28 05:28:41;;;;;;;2.70;1.90;;;;;;;18.38;71.89;97543.94;5010485;28;20448;-70
2023/06/28 05:31:07;;;;;;;2.93;1.83;;;;;;;18.39;73.60;97550.09;5003392;28;20412;-70
2023/06/28 05:33:33;;;;;;;2.78;1.58;;;;;;;18.38;75.05;97546.63;5005051;28;20414;-70
2023/06/28 05:36:00;;;;;;;3.60;1.73;;;;;;;18.38;76.40;97546.63;5005003;28;20405;-71
2023/06/28 05:38:26;;;;;;;3.10;2.07;;;;;;;18.39;77.72;97542.84;4998919;28;20418;-71
2023/06/28 05:41:10;;;;;;;2.75;1.70;;;;;;;18.41;79.02;97539.88;5011900;28;20899;-71
2023/06/28 05:43:36;;;;;;;3.00;1.70;;;;;;;18.43;80.26;97541.16;4995320;28;20425;-70
2023/06/28 05:46:02;;;;;;;2.92;1.55;;;;;;;18.46;81.14;97547.81;4992535;28;20426;-70
2023/06/28 05:48:31;;;;;;;2.75;1.70;;;;;;;18.48;82.08;97543.75;4999495;28;20508;-70
2023/06/28 05:50:58;;;;;;;2.35;1.73;;;;;;;18.52;82.93;97536.69;5010513;28;20408;-70
2023/06/28 05:53:24;;;;;;;2.55;1.67;;;;;;;18.58;83.70;97534.72;4995630;28;20417;-70
2023/06/28 05:55:50;;;;;;;2.90;1.80;;;;;;;18.62;84.38;97534.94;5008310;28;20839;-70
2023/06/28 05:58:18;;;;;;;2.92;1.80;;;;;;;18.68;84.80;97529.19;5010631;28;20421;-70
2023/06/28 06:00:44;;;;;;;4.97;2.20;;;;;;;18.74;85.11;97537.91;5004313;28;20418;-69
2023/06/28 06:03:10;;;;;;;2.63;1.70;;;;;;;18.79;85.43;97535.94;5003007;28;20864;-70
2023/06/28 06:05:37;;;;;;;2.70;1.73;;;;;;;18.84;85.77;97543.88;5001762;28;20425;-70
2023/06/28 06:08:04;;;;;;;2.25;1.58;;;;;;;18.91;85.89;97543.44;5010839;28;20416;-70
2023/06/28 06:10:30;;;;;;;2.80;1.65;;;;;;;18.98;85.29;97537.69;5006717;28;20417;-71
2023/06/28 06:12:56;;;;;;;2.38;1.70;;;;;;;19.01;84.06;97537.88;5002377;28;20502;-71
2023/06/28 06:15:24;;;;;;;3.75;1.85;;;;;;;19.07;81.90;97534.00;4999127;28;20469;-70
2023/06/28 06:17:51;;;;;;;3.55;1.75;;;;;;;19.09;81.33;97539.06;4991580;28;20407;-70
2023/06/28 06:20:17;;;;;;;4.82;2.13;;;;;;;19.12;78.83;97531.19;4997225;28;20458;-70
2023/06/28 06:22:43;;;;;;;3.20;1.90;;;;;;;19.17;79.14;97532.97;5002405;28;20411;-70
2023/06/28 06:25:10;;;;;;;3.70;2.13;;;;;;;19.20;78.70;97533.16;4998377;28;20532;-70
2023/06/28 06:27:36;;;;;;;3.13;1.87;;;;;;;19.21;77.74;97529.38;5003274;28;20405;-70
2023/06/28 06:30:03;;;;;;;3.20;1.77;;;;;;;19.28;78.19;97528.94;5007921;28;20417;-70
2023/06/28 06:32:30;;;;;;;4.30;1.80;;;;;;;19.29;76.23;97530.53;5010444;28;20423;-70
2023/06/28 06:35:01;;;;;;;4.15;1.90;;;;;;;19.30;76.96;97540.19;5006245;28;20929;-70
2023/06/28 06:37:27;;;;;;;2.40;1.50;;;;;;;19.31;78.00;97531.84;5006555;28;20900;-70
2023/06/28 06:39:56;;;;;;;5.80;2.00;;;;;;;19.39;76.51;97538.38;5009369;28;20503;-70
2023/06/28 06:42:22;;;;;;;5.55;2.10;;;;;;;19.39;75.40;97541.06;5010480;28;20412;-70
2023/06/28 06:44:48;;;;;;;3.97;1.90;;;;;;;19.48;70.91;97539.25;5002549;28;20782;-70
2023/06/28 06:47:14;;;;;;;7.43;1.93;;;;;;;19.55;68.81;97531.56;4998933;28;20513;-70
2023/06/28 06:49:42;;;;;;;6.97;2.30;;;;;;;19.57;67.73;97550.06;5006595;28;20424;-70
2023/06/28 06:52:08;;;;;;;6.47;2.35;;;;;;;19.53;67.54;97547.19;4997018;28;20403;-70
2023/06/28 06:54:37;;;;;;;4.32;1.75;;;;;;;19.53;70.13;97535.66;4995751;28;20900;-70
2023/06/28 06:57:04;;;;;;;3.40;1.55;;;;;;;19.58;71.16;97543.59;5003757;28;20492;-70
2023/06/28 06:59:30;;;;;;;3.20;1.70;;;;;;;19.61;71.48;97543.78;5006546;28;20402;-70
2023/06/28 07:01:56;;;;;;;1.95;1.60;;;;;;;19.67;72.25;97545.25;5005257;28;20783;-70
2023/06/28 07:04:23;;;;;;;1.85;1.30;;;;;;;19.80;71.94;97546.28;4996910;28;20505;-70
2023/06/28 07:06:50;;;;;;;3.87;1.90;;;;;;;19.85;68.27;97546.13;5009300;28;20421;-70
2023/06/28 07:09:17;;;;;;;3.83;1.70;;;;;;;19.90;67.21;97553.28;5007634;28;20509;-70
2023/06/28 07:11:44;;;;;;;6.07;2.20;;;;;;;19.90;68.19;97543.34;5005120;28;20811;-70
2023/06/28 07:14:11;;;;;;;2.43;1.40;;;;;;;19.98;68.53;97545.28;4997393;28;20408;-70
2023/06/28 07:16:37;;;;;;;3.58;1.70;;;;;;;19.99;67.67;97546.88;5011782;28;20451;-69
2023/06/28 07:19:03;;;;;;;4.07;1.83;;;;;;;20.00;68.24;97544.94;5012043;28;20883;-70
2023/06/28 07:21:30;;;;;;;5.37;1.80;;;;;;;20.06;65.70;97544.53;5012557;28;20758;-69
2023/06/28 07:23:57;;;;;;;4.78;2.20;;;;;;;20.08;64.99;97550.38;5008622;28;20420;-71
2023/06/28 07:26:24;;;;;;;4.73;2.00;;;;;;;20.06;65.89;97551.81;5005282;28;20429;-71
2023/06/28 07:28:50;;;;;;;4.60;1.98;;;;;;;20.10;65.48;97550.06;5009714;28;20412;-71
2023/06/28 07:31:16;;;;;;;3.20;1.70;;;;;;;20.07;66.16;97553.41;5000741;28;20418;-71
2023/06/28 07:33:42;;;;;;;3.63;1.70;;;;;;;20.08;67.45;97563.81;5000080;28;20418;-70
2023/06/28 07:36:09;;;;;;;3.63;1.80;;;;;;;20.09;67.90;97562.72;4998977;28;20579;-70
2023/06/28 07:38:35;;;;;;;4.50;1.93;;;;;;;20.12;66.77;97560.53;5010586;28;20558;-71
2023/06/28 07:41:03;;;;;;;5.70;1.80;;;;;;;20.10;66.18;97558.13;5012261;28;20409;-71
2023/06/28 07:43:29;;;;;;;6.90;2.00;;;;;;;20.16;67.13;97564.97;5006001;28;20530;-71
2023/06/28 07:45:59;;;;;;;3.38;1.60;;;;;;;20.12;67.11;97564.00;5010419;28;20427;-71
2023/06/28 07:48:26;;;;;;;4.57;1.70;;;;;;;20.16;67.14;97566.84;5009664;28;21023;-71
2023/06/28 07:50:53;;;;;;;3.35;2.13;;;;;;;20.15;67.00;97563.38;5010863;28;20902;-71
2023/06/28 07:53:19;;;;;;;7.32;3.70;;;;;;;20.15;65.89;97554.53;5002463;28;20417;-71
2023/06/28 07:55:45;;;;;;;4.45;2.90;;;;;;;20.18;67.79;97565.47;5005157;28;20421;-70
2023/06/28 07:58:13;;;;;;;6.17;2.27;;;;;;;20.19;67.94;97561.66;5002190;28;20517;-71
2023/06/28 08:00:41;;;;;;;3.95;1.80;;;;;;;20.26;68.11;97566.59;4994663;28;20414;-71
2023/06/28 08:03:07;;;;;;;4.33;2.17;;;;;;;20.28;66.81;97562.50;5013574;28;20499;-69
2023/06/28 08:05:34;;;;;;;3.63;1.80;;;;;;;20.33;68.23;97566.94;5012932;28;20405;-69
2023/06/28 08:08:00;;;;;;;5.03;1.90;;;;;;;20.35;66.51;97562.09;5009823;28;20973;-71
2023/06/28 08:10:26;;;;;;;2.72;1.58;;;;;;;20.34;66.17;97555.13;5013415;28;20436;-71
2023/06/28 08:12:52;;;;;;;5.30;1.63;;;;;;;20.36;66.76;97556.41;4998823;28;20741;-71
2023/06/28 08:15:20;;;;;;;8.05;2.05;;;;;;;20.51;60.52;97563.28;4996100;28;20419;-71
2023/06/28 08:17:47;;;;;;;3.83;1.70;;;;;;;20.48;62.46;97564.69;5010721;28;20492;-69
2023/06/28 08:20:14;;;;;;;2.90;1.80;;;;;;;20.51;63.92;97562.47;5009497;28;20474;-70
2023/06/28 08:22:40;;;;;;;2.65;1.75;;;;;;;20.55;63.58;97561.53;5003727;28;20962;-70
2023/06/28 08:25:06;;;;;;;2.53;1.37;;;;;;;20.61;64.71;97559.50;4993848;28;20489;-70
2023/06/28 08:27:33;;;;;;;5.68;1.63;;;;;;;20.64;65.28;97565.06;4995660;28;20420;-70
2023/06/28 08:29:59;;;;;;;4.38;1.70;;;;;;;20.68;65.79;97560.63;5000523;28;20419;-70
2023/06/28 08:32:26;;;;;;;1.60;1.30;;;;;;;20.74;66.55;97559.41;4998843;28;20421;-69
2023/06/28 08:34:52;;;;;;;2.08;1.20;;;;;;;20.76;66.85;97561.75;4995648;28;20414;-70
2023/06/28 08:37:19;;;;;;;5.60;1.50;;;;;;;20.80;64.37;97555.47;4993694;28;20484;-70
2023/06/28 08:39:45;;;;;;;7.40;1.80;;;;;;;20.74;63.16;97564.00;5002231;28;20416;-70
2023/06/28 08:42:12;;;;;;;3.55;1.70;;;;;;;20.68;63.37;97559.84;5013575;28;20496;-70
2023/06/28 08:44:38;;;;;;;4.70;2.08;;;;;;;20.59;60.18;97557.13;4993554;28;20896;-70
2023/06/28 08:47:06;;;;;;;7.07;2.43;;;;;;;20.70;58.34;97560.31;4995599;28;20422;-70
2023/06/28 08:49:36;;;;;;;7.68;2.53;;;;;;;20.75;56.63;97557.50;5003802;28;20468;-70
2023/06/28 08:52:05;;;;;;;3.17;1.43;;;;;;;20.66;58.09;97556.69;4996660;28;20495;-70
2023/06/28 08:54:32;;;;;;;3.72;1.52;;;;;;;20.66;59.81;97562.88;4994356;28;20927;-72
2023/06/28 08:57:00;;;;;;;2.88;1.60;;;;;;;20.73;61.20;97557.81;4993457;28;20962;-70
2023/06/28 08:59:27;;;;;;;3.80;1.67;;;;;;;20.81;62.42;97558.94;4996591;28;20410;-70
2023/06/28 09:01:55;;;;;;;1.98;1.20;;;;;;;20.90;63.23;97557.03;4996891;28;20407;-69
2023/06/28 09:04:23;;;;;;;2.42;1.30;;;;;;;20.99;63.62;97562.44;4994457;28;20482;-71
2023/06/28 09:06:51;;;;;;;2.20;1.30;;;;;;;21.06;64.26;97558.19;5011042;28;20865;-70
2023/06/28 09:09:18;;;;;;;5.28;1.70;;;;;;;21.13;63.94;97553.13;5012296;28;20408;-71
2023/06/28 09:11:45;;;;;;;3.63;1.50;;;;;;;21.18;63.79;97554.94;5003247;28;20426;-70
2023/06/28 09:14:12;;;;;;;3.10;1.50;;;;;;;21.25;64.38;97547.16;4994610;28;20414;-71
2023/06/28 09:16:40;;;;;;;3.30;1.30;;;;;;;21.32;64.67;97546.69;5000986;28;20812;-70
2023/06/28 09:19:06;;;;;;;3.15;1.65;;;;;;;21.39;64.11;97549.72;4999809;28;20839;-69
2023/06/28 09:21:34;;;;;;;2.85;1.30;;;;;;;21.51;64.84;97545.25;5010702;28;20419;-70
2023/06/28 09:24:01;;;;;;;3.83;1.83;;;;;;;21.63;64.62;97550.81;5012214;28;20412;-70
2023/06/28 09:26:31;;;;;;;1.73;1.25;;;;;;;21.75;64.45;97546.66;5008814;28;20502;-70
2023/06/28 09:29:00;;;;;;;1.63;1.30;;;;;;;21.88;64.81;97553.78;5003080;28;20414;-72
2023/06/28 09:31:33;;;;;;;3.50;1.80;;;;;;;21.98;58.28;97556.19;4995258;28;20410;-72
2023/06/28 09:33:59;;;;;;;6.70;2.10;;;;;;;22.08;55.28;97552.34;5002039;28;20876;-70
2023/06/28 09:36:28;;;;;;;6.40;2.03;;;;;;;21.91;55.90;97550.44;5003489;28;20409;-71
2023/06/28 09:38:57;;;;;;;6.53;2.15;;;;;;;22.06;53.20;97543.78;5007887;28;20408;-70
2023/06/28 09:41:36;;;;;;;3.17;1.70;;;;;;;21.89;55.41;97534.59;5010817;28;20409;-71
2023/06/28 09:44:03;;;;;;;4.07;2.00;;;;;;;21.86;57.34;97543.34;4997151;28;20416;-70
2023/06/28 09:46:33;;;;;;;2.73;1.37;;;;;;;21.90;58.55;97541.56;4991082;28;20927;-70
2023/06/28 09:49:01;;;;;;;1.42;1.20;;;;;;;22.00;59.51;97540.47;4996340;28;20456;-70
2023/06/28 09:51:27;;;;;;;1.58;1.20;;;;;;;22.11;60.51;97546.31;4994411;28;20422;-70
2023/06/28 09:53:56;;;;;;;3.33;1.47;;;;;;;22.23;60.74;97538.34;5003421;28;20435;-70
2023/06/28 09:56:34;;;;;;;2.67;1.20;;;;;;;22.35;61.36;97543.84;4993348;28;20760;-71
2023/06/28 09:59:05;;;;;;;2.20;1.45;;;;;;;22.44;61.21;97544.63;5002769;28;20519;-70
2023/06/28 10:01:33;;;;;;;3.47;1.35;;;;;;;22.51;61.65;97536.00;5005548;28;20418;-70
2023/06/28 10:04:00;;;;;;;1.88;1.20;;;;;;;22.55;60.86;97536.97;4993181;28;20422;-70
2023/06/28 10:06:28;;;;;;;6.55;2.00;;;;;;;22.85;50.82;97533.19;4992087;28;20425;-70
2023/06/28 10:08:57;;;;;;;5.93;1.95;;;;;;;22.66;51.93;97541.66;5010589;28;20538;-69
2023/06/28 10:11:24;;;;;;;3.90;1.70;;;;;;;22.46;53.35;97538.91;4996890;28;20452;-71
2023/06/28 10:13:54;;;;;;;3.45;1.30;;;;;;;22.37;55.02;97537.03;5011250;28;20431;-70
2023/06/28 10:16:24;;;;;;;2.25;1.20;;;;;;;22.37;56.48;97536.25;5001949;28;20505;-70
2023/06/28 10:18:50;;;;;;;4.32;1.77;;;;;;;22.36;56.70;97529.25;5009767;28;20901;-70
2023/06/28 10:21:18;;;;;;;6.82;1.98;;;;;;;22.32;54.50;97529.13;5011245;28;20396;-70
2023/06/28 10:23:45;;;;;;;10.05;2.05;;;;;;;22.31;54.88;97529.44;5005223;28;20414;-70
2023/06/28 10:26:13;;;;;;;2.83;1.35;;;;;;;22.43;56.08;97528.75;5001485;28;20509;-70
2023/06/28 10:28:43;;;;;;;4.65;2.00;;;;;;;22.48;55.95;97518.56;5008329;28;20767;-70
2023/06/28 10:31:12;;;;;;;5.82;1.88;;;;;;;22.40;54.88;97527.50;4993457;28;20410;-71
2023/06/28 10:33:39;;;;;;;2.70;1.80;;;;;;;22.37;54.97;97522.75;4997669;28;20746;-70
2023/06/28 10:36:06;;;;;;;3.83;1.65;;;;;;;22.26;54.85;97518.81;5010153;28;20420;-71
2023/06/28 10:38:33;;;;;;;2.28;1.35;;;;;;;22.17;55.58;97521.56;5010787;28;20413;-70
2023/06/28 10:41:00;;;;;;;3.35;1.48;;;;;;;22.02;56.31;97521.28;5004529;28;20435;-70
2023/06/28 10:43:27;;;;;;;2.35;1.38;;;;;;;21.88;57.50;97513.34;4999017;28;20456;-71
2023/06/28 10:45:53;;;;;;;4.00;1.80;;;;;;;21.85;58.33;97512.09;5006952;28;20491;-70
2023/06/28 10:48:23;;;;;;;3.83;1.45;;;;;;;22.08;59.71;97512.72;5009008;28;20420;-70
2023/06/28 10:50:50;;;;;;;2.58;1.35;;;;;;;22.38;59.72;97511.66;5003007;28;20469;-70
2023/06/28 10:53:21;;;;;;;9.90;2.10;;;;;;;22.55;53.94;97504.59;5007610;28;20416;-71
2023/06/28 10:56:10;;;;;;;4.57;1.85;;;;;;;22.84;54.59;97499.22;5009444;28;20435;-70
2023/06/28 10:58:38;;;;;;;3.92;1.75;;;;;;;23.14;55.85;97511.53;5001913;28;20412;-70
2023/06/28 11:01:06;;;;;;;4.47;1.95;;;;;;;23.36;53.89;97491.50;5009976;28;20801;-70
2023/06/28 11:03:42;;;;;;;2.97;1.50;;;;;;;23.63;55.32;97492.06;5007791;28;20405;-70
2023/06/28 11:06:09;;;;;;;4.57;1.42;;;;;;;23.81;55.43;97494.28;5005941;28;20463;-70
2023/06/28 11:08:41;;;;;;;2.37;1.50;;;;;;;23.93;55.87;97496.22;5010124;28;20408;-69
2023/06/28 11:11:09;;;;;;;2.72;1.40;;;;;;;23.85;55.14;97484.38;5008332;28;20459;-69
2023/06/28 11:13:46;;;;;;;3.22;1.30;;;;;;;23.75;56.01;97492.13;5006365;28;20508;-70
2023/06/28 11:16:16;;;;;;;3.65;1.50;;;;;;;23.67;54.97;97496.50;5006074;28;20898;-69
2023/06/28 11:18:44;;;;;;;4.15;1.80;;;;;;;23.68;53.91;97500.75;4999052;28;20912;-70
2023/06/28 11:21:15;;;;;;;7.15;2.25;;;;;;;24.06;50.21;97494.31;5002302;28;20404;-70
2023/06/28 11:23:44;;;;;;;2.38;1.40;;;;;;;24.12;51.84;97490.28;5000051;28;20409;-69
2023/06/28 11:26:14;;;;;;;7.03;1.90;;;;;;;24.04;50.71;97494.66;4995835;28;20446;-70
2023/06/28 11:28:48;;;;;;;3.55;1.52;;;;;;;23.87;51.16;97492.16;5003689;28;20898;-70
2023/06/28 11:31:18;;;;;;;6.20;1.80;;;;;;;23.85;53.59;97497.09;4993801;28;20896;-71
2023/06/28 11:33:47;;;;;;;5.07;1.60;;;;;;;23.98;53.78;97498.72;4990265;28;20414;-71